createdAt,value
2017-03-07T00:00:00.822Z,21.75
2017-03-07T00:01:00.853Z,21.69
2017-03-07T00:02:00.334Z,21.74
2017-03-07T00:03:00.903Z,21.67
2017-03-07T00:04:00.917Z,21.71
2017-03-07T00:05:00.940Z,21.69
2017-03-07T00:06:00.978Z,21.68
2017-03-07T00:07:00.853Z,21.68
2017-03-07T00:08:00.251Z,21.58
2017-03-07T00:09:01.079Z,21.67
2017-03-07T00:10:01.100Z,21.67
2017-03-07T00:11:00.717Z,21.65
2017-03-07T00:12:01.397Z,21.64
2017-03-07T00:13:01.179Z,21.62
2017-03-07T00:14:00.399Z,21.62
2017-03-07T00:15:00.425Z,21.67
2017-03-07T00:16:00.864Z,21.62
2017-03-07T00:17:00.882Z,21.58
2017-03-07T00:18:01.319Z,21.59
2017-03-07T00:19:01.323Z,21.68
2017-03-07T00:20:00.963Z,21.53
2017-03-07T00:21:01.384Z,21.56
2017-03-07T00:22:01.028Z,21.59
2017-03-07T00:23:01.441Z,21.58
2017-03-07T00:24:01.474Z,21.58
2017-03-07T00:25:01.512Z,21.62
2017-03-07T00:26:01.133Z,21.56
2017-03-07T00:27:01.161Z,21.58
2017-03-07T00:28:01.579Z,21.56
2017-03-07T00:29:01.211Z,21.52
2017-03-07T00:30:01.628Z,21.59
2017-03-07T00:31:01.653Z,21.52
2017-03-07T00:32:01.296Z,21.53
2017-03-07T00:33:01.314Z,21.5
2017-03-07T00:34:01.343Z,21.47
2017-03-07T00:35:01.763Z,21.52
2017-03-07T00:36:01.788Z,21.44
2017-03-07T00:37:01.425Z,21.49
2017-03-07T00:38:01.470Z,21.47
2017-03-07T00:39:01.478Z,21.5
2017-03-07T00:40:01.503Z,21.46
2017-03-07T00:41:01.141Z,21.47
2017-03-07T00:42:01.960Z,21.42
2017-03-07T00:43:01.985Z,21.5
2017-03-07T00:44:01.622Z,21.47
2017-03-07T00:45:01.655Z,21.43
2017-03-07T00:46:02.063Z,21.49
2017-03-07T00:47:02.092Z,21.47
2017-03-07T00:48:02.118Z,21.43
2017-03-07T00:49:01.753Z,21.42
2017-03-07T00:50:02.175Z,21.42
2017-03-07T00:51:02.195Z,21.34
2017-03-07T00:52:02.229Z,21.38
2017-03-07T00:53:02.256Z,21.32
2017-03-07T00:54:02.290Z,21.38
2017-03-07T00:55:02.302Z,21.35
2017-03-07T00:56:02.335Z,21.35
2017-03-07T00:57:01.967Z,21.32
2017-03-07T00:58:02.380Z,21.38
2017-03-07T00:59:02.013Z,21.35
2017-03-07T01:00:02.462Z,21.43
2017-03-07T01:01:02.503Z,21.43
2017-03-07T01:02:02.104Z,21.37
2017-03-07T01:03:02.164Z,21.37
2017-03-07T01:04:01.765Z,21.35
2017-03-07T01:05:02.589Z,21.38
2017-03-07T01:06:02.614Z,21.34
2017-03-07T01:07:02.223Z,21.28
2017-03-07T01:08:02.267Z,21.32
2017-03-07T01:09:02.683Z,21.4
2017-03-07T01:10:02.726Z,21.28
2017-03-07T01:11:02.338Z,21.35
2017-03-07T01:12:02.779Z,21.34
2017-03-07T01:13:02.799Z,21.29
2017-03-07T01:14:02.810Z,21.32
2017-03-07T01:15:02.837Z,21.32
2017-03-07T01:16:02.864Z,21.27
2017-03-07T01:17:02.911Z,21.24
2017-03-07T01:18:02.551Z,21.31
2017-03-07T01:19:02.575Z,21.25
2017-03-07T01:20:03.009Z,21.28
2017-03-07T01:21:03.018Z,21.31
2017-03-07T01:22:02.642Z,21.31
2017-03-07T01:23:02.619Z,21.22
2017-03-07T01:24:02.680Z,21.25
2017-03-07T01:25:02.331Z,21.29
2017-03-07T01:26:02.349Z,21.28
2017-03-07T01:27:03.177Z,21.29
2017-03-07T01:28:03.198Z,21.22
2017-03-07T01:29:03.232Z,21.25
2017-03-07T01:30:02.848Z,21.16
2017-03-07T01:31:03.272Z,21.22
2017-03-07T01:32:02.897Z,21.24
2017-03-07T01:33:03.335Z,21.16
2017-03-07T01:34:02.954Z,21.14
2017-03-07T01:35:02.996Z,21.21
2017-03-07T01:36:03.013Z,21.19
2017-03-07T01:37:03.436Z,21.19
2017-03-07T01:38:03.065Z,21.22
2017-03-07T01:39:03.495Z,21.16
2017-03-07T01:40:03.563Z,21.13
2017-03-07T01:41:03.150Z,21.19
2017-03-07T01:42:03.181Z,21.17
2017-03-07T01:43:03.214Z,21.17
2017-03-07T01:44:03.227Z,21.22
2017-03-07T01:45:03.260Z,21.16
2017-03-07T01:46:03.280Z,21.06
2017-03-07T01:47:03.303Z,21.17
2017-03-07T01:48:03.742Z,21.12
2017-03-07T01:49:03.374Z,21.13
2017-03-07T01:50:03.783Z,21.1
2017-03-07T01:51:03.816Z,21.06
2017-03-07T01:52:03.453Z,21.1
2017-03-07T01:53:03.492Z,21.14
2017-03-07T01:54:03.890Z,21.12
2017-03-07T01:55:03.915Z,21.04
2017-03-07T01:56:03.568Z,21.1
2017-03-07T01:57:03.988Z,21.14
2017-03-07T01:58:04.005Z,21.06
2017-03-07T01:59:03.642Z,21.07
2017-03-07T02:00:04.055Z,21.13
2017-03-07T02:01:04.087Z,21.12
2017-03-07T02:02:03.711Z,21.04
2017-03-07T02:03:04.137Z,21.07
2017-03-07T02:04:03.766Z,21.14
2017-03-07T02:05:04.190Z,21.03
2017-03-07T02:06:04.223Z,21.06
2017-03-07T02:07:03.464Z,21.06
2017-03-07T02:08:03.501Z,20.95
2017-03-07T02:09:04.293Z,21.04
2017-03-07T02:10:04.322Z,20.97
2017-03-07T02:11:03.967Z,21.04
2017-03-07T02:12:03.580Z,21.1
2017-03-07T02:13:04.004Z,20.99
2017-03-07T02:14:03.632Z,21.09
2017-03-07T02:15:04.058Z,20.94
2017-03-07T02:16:04.494Z,21.12
2017-03-07T02:17:04.107Z,20.99
2017-03-07T02:18:04.533Z,20.97
2017-03-07T02:19:04.577Z,20.94
2017-03-07T02:20:04.598Z,20.94
2017-03-07T02:21:04.631Z,21.03
2017-03-07T02:22:04.235Z,21.03
2017-03-07T02:23:04.932Z,20.97
2017-03-07T02:24:04.700Z,21.04
2017-03-07T02:25:04.325Z,20.92
2017-03-07T02:26:04.354Z,20.92
2017-03-07T02:27:04.403Z,20.87
2017-03-07T02:28:04.256Z,21.01
2017-03-07T02:29:04.429Z,20.94
2017-03-07T02:30:04.481Z,21.03
2017-03-07T02:31:04.886Z,21.07
2017-03-07T02:32:04.520Z,20.89
2017-03-07T02:33:05.183Z,20.98
2017-03-07T02:34:04.972Z,20.95
2017-03-07T02:35:04.605Z,20.97
2017-03-07T02:36:04.617Z,20.97
2017-03-07T02:37:04.650Z,20.98
2017-03-07T02:38:05.321Z,20.84
2017-03-07T02:39:05.096Z,20.98
2017-03-07T02:40:04.725Z,20.91
2017-03-07T02:41:05.163Z,20.89
2017-03-07T02:42:05.174Z,20.92
2017-03-07T02:43:05.055Z,20.94
2017-03-07T02:44:04.831Z,20.89
2017-03-07T02:45:05.260Z,20.95
2017-03-07T02:46:05.306Z,20.85
2017-03-07T02:47:04.510Z,20.89
2017-03-07T02:48:05.194Z,20.88
2017-03-07T02:49:05.386Z,20.89
2017-03-07T02:50:04.618Z,20.82
2017-03-07T02:51:05.424Z,20.88
2017-03-07T02:52:05.045Z,20.91
2017-03-07T02:53:05.334Z,20.91
2017-03-07T02:54:05.502Z,20.94
2017-03-07T02:55:04.728Z,20.92
2017-03-07T02:56:05.155Z,20.91
2017-03-07T02:57:05.597Z,20.91
2017-03-07T02:58:05.857Z,20.76
2017-03-07T02:59:05.239Z,20.88
2017-03-07T03:00:05.275Z,20.87
2017-03-07T03:01:04.893Z,20.84
2017-03-07T03:02:05.712Z,20.87
2017-03-07T03:03:05.585Z,20.91
2017-03-07T03:04:05.759Z,20.79
2017-03-07T03:05:05.795Z,20.85
2017-03-07T03:06:05.415Z,20.8
2017-03-07T03:07:05.845Z,20.76
2017-03-07T03:08:06.121Z,20.8
2017-03-07T03:09:05.510Z,20.84
2017-03-07T03:10:05.922Z,20.84
2017-03-07T03:11:05.947Z,20.74
2017-03-07T03:12:05.985Z,20.77
2017-03-07T03:13:05.869Z,20.77
2017-03-07T03:14:06.022Z,20.72
2017-03-07T03:15:06.051Z,20.76
2017-03-07T03:16:05.695Z,20.79
2017-03-07T03:17:05.708Z,20.76
2017-03-07T03:18:06.024Z,20.79
2017-03-07T03:19:05.762Z,20.77
2017-03-07T03:20:06.194Z,20.77
2017-03-07T03:21:05.819Z,20.77
2017-03-07T03:22:06.240Z,20.77
2017-03-07T03:23:06.556Z,20.8
2017-03-07T03:24:05.501Z,20.73
2017-03-07T03:25:06.322Z,20.7
2017-03-07T03:26:05.959Z,20.7
2017-03-07T03:27:06.391Z,20.74
2017-03-07T03:28:06.003Z,20.69
2017-03-07T03:29:06.448Z,20.79
2017-03-07T03:30:06.460Z,20.74
2017-03-07T03:31:06.090Z,20.74
2017-03-07T03:32:06.507Z,20.74
2017-03-07T03:33:06.540Z,20.7
2017-03-07T03:34:06.173Z,20.7
2017-03-07T03:35:06.583Z,20.74
2017-03-07T03:36:06.218Z,20.66
2017-03-07T03:37:06.638Z,20.8
2017-03-07T03:38:06.667Z,20.76
2017-03-07T03:39:06.712Z,20.66
2017-03-07T03:40:06.329Z,20.76
2017-03-07T03:41:06.353Z,20.73
2017-03-07T03:42:06.386Z,20.72
2017-03-07T03:43:06.815Z,20.73
2017-03-07T03:44:06.836Z,20.74
2017-03-07T03:45:06.859Z,20.62
2017-03-07T03:46:06.886Z,20.61
2017-03-07T03:47:06.898Z,20.74
2017-03-07T03:48:06.547Z,20.59
2017-03-07T03:49:06.563Z,20.67
2017-03-07T03:50:06.985Z,20.66
2017-03-07T03:51:07.021Z,20.76
2017-03-07T03:52:07.054Z,20.67
2017-03-07T03:53:07.074Z,20.62
2017-03-07T03:54:07.087Z,20.7
2017-03-07T03:55:06.728Z,20.59
2017-03-07T03:56:07.137Z,20.58
2017-03-07T03:57:06.769Z,20.73
2017-03-07T03:58:07.194Z,20.69
2017-03-07T03:59:06.842Z,20.62
2017-03-07T04:00:06.857Z,20.73
2017-03-07T04:01:07.273Z,20.69
2017-03-07T04:02:07.301Z,20.62
2017-03-07T04:03:06.930Z,20.59
2017-03-07T04:04:07.210Z,20.61
2017-03-07T04:05:06.991Z,20.64
2017-03-07T04:06:07.425Z,20.66
2017-03-07T04:07:07.431Z,20.72
2017-03-07T04:08:07.065Z,20.62
2017-03-07T04:09:07.738Z,20.64
2017-03-07T04:10:07.519Z,20.62
2017-03-07T04:11:07.151Z,20.66
2017-03-07T04:12:07.169Z,20.66
2017-03-07T04:13:07.592Z,20.58
2017-03-07T04:14:07.878Z,20.66
2017-03-07T04:15:06.854Z,20.57
2017-03-07T04:16:07.280Z,20.59
2017-03-07T04:17:06.902Z,20.52
2017-03-07T04:18:07.727Z,20.61
2017-03-07T04:19:07.614Z,20.57
2017-03-07T04:20:07.795Z,20.59
2017-03-07T04:21:07.800Z,20.59
2017-03-07T04:22:07.424Z,20.62
2017-03-07T04:23:07.873Z,20.61
2017-03-07T04:24:08.133Z,20.66
2017-03-07T04:25:07.526Z,20.61
2017-03-07T04:26:07.141Z,20.67
2017-03-07T04:27:07.972Z,20.66
2017-03-07T04:28:07.593Z,20.61
2017-03-07T04:29:07.874Z,20.64
2017-03-07T04:30:07.646Z,20.64
2017-03-07T04:31:08.090Z,20.62
2017-03-07T04:32:08.103Z,20.61
2017-03-07T04:33:07.722Z,20.62
2017-03-07T04:34:08.008Z,20.64
2017-03-07T04:35:07.410Z,20.59
2017-03-07T04:36:07.415Z,20.61
2017-03-07T04:37:08.231Z,20.67
2017-03-07T04:38:07.860Z,20.62
2017-03-07T04:39:08.540Z,20.58
2017-03-07T04:40:08.321Z,20.59
2017-03-07T04:41:08.341Z,20.67
2017-03-07T04:42:07.975Z,20.62
2017-03-07T04:43:08.400Z,20.61
2017-03-07T04:44:08.268Z,20.61
2017-03-07T04:45:08.045Z,20.67
2017-03-07T04:46:08.458Z,20.59
2017-03-07T04:47:08.091Z,20.66
2017-03-07T04:48:08.535Z,20.64
2017-03-07T04:49:08.808Z,20.57
2017-03-07T04:50:08.173Z,20.59
2017-03-07T04:51:08.214Z,20.62
2017-03-07T04:52:08.630Z,20.61
2017-03-07T04:53:08.251Z,20.61
2017-03-07T04:54:08.551Z,20.61
2017-03-07T04:55:08.304Z,20.62
2017-03-07T04:56:07.937Z,20.64
2017-03-07T04:57:08.366Z,20.66
2017-03-07T04:58:08.782Z,20.57
2017-03-07T04:59:09.064Z,20.62
2017-03-07T05:00:08.830Z,20.58
2017-03-07T05:01:08.853Z,20.62
2017-03-07T05:02:08.093Z,20.57
2017-03-07T05:03:08.913Z,20.57
2017-03-07T05:04:08.802Z,20.62
2017-03-07T05:05:08.979Z,20.66
2017-03-07T05:06:08.612Z,20.61
2017-03-07T05:07:08.637Z,20.57
2017-03-07T05:08:09.054Z,20.57
2017-03-07T05:09:09.318Z,20.55
2017-03-07T05:10:09.143Z,20.57
2017-03-07T05:11:08.723Z,20.62
2017-03-07T05:12:08.797Z,20.57
2017-03-07T05:13:09.181Z,20.55
2017-03-07T05:14:09.454Z,20.57
2017-03-07T05:15:08.855Z,20.58
2017-03-07T05:16:08.863Z,20.61
2017-03-07T05:17:09.290Z,20.57
2017-03-07T05:18:09.305Z,20.58
2017-03-07T05:19:09.585Z,20.61
2017-03-07T05:20:09.354Z,20.57
2017-03-07T05:21:09.020Z,20.62
2017-03-07T05:22:09.412Z,20.61
2017-03-07T05:23:09.468Z,20.62
2017-03-07T05:24:09.723Z,20.64
2017-03-07T05:25:09.098Z,20.5
2017-03-07T05:26:09.135Z,20.61
2017-03-07T05:27:08.780Z,20.64
2017-03-07T05:28:09.185Z,20.64
2017-03-07T05:29:09.865Z,20.62
2017-03-07T05:30:09.238Z,20.64
2017-03-07T05:31:09.650Z,20.61
2017-03-07T05:32:09.275Z,20.69
2017-03-07T05:33:09.716Z,20.61
2017-03-07T05:34:09.592Z,20.61
2017-03-07T05:35:09.757Z,20.61
2017-03-07T05:36:09.409Z,20.73
2017-03-07T05:37:09.424Z,20.73
2017-03-07T05:38:09.840Z,20.67
2017-03-07T05:39:09.096Z,20.74
2017-03-07T05:40:09.498Z,20.72
2017-03-07T05:41:09.918Z,20.82
2017-03-07T05:42:09.555Z,20.76
2017-03-07T05:43:09.567Z,20.73
2017-03-07T05:44:09.596Z,20.77
2017-03-07T05:45:10.037Z,20.79
2017-03-07T05:46:09.668Z,20.82
2017-03-07T05:47:10.078Z,20.77
2017-03-07T05:48:10.095Z,20.88
2017-03-07T05:49:09.728Z,20.87
2017-03-07T05:50:09.761Z,20.88
2017-03-07T05:51:10.201Z,20.92
2017-03-07T05:52:09.811Z,20.84
2017-03-07T05:53:10.234Z,20.85
2017-03-07T05:54:09.888Z,20.91
2017-03-07T05:55:09.888Z,20.98
2017-03-07T05:56:09.925Z,20.92
2017-03-07T05:57:09.977Z,20.97
2017-03-07T05:58:09.567Z,20.88
2017-03-07T05:59:10.000Z,21.01
2017-03-07T06:00:10.420Z,20.92
2017-03-07T06:01:10.466Z,20.97
2017-03-07T06:02:10.081Z,20.94
2017-03-07T06:03:10.498Z,20.97
2017-03-07T06:04:09.732Z,20.98
2017-03-07T06:05:10.156Z,20.98
2017-03-07T06:06:10.188Z,20.99
2017-03-07T06:07:09.809Z,20.92
2017-03-07T06:08:10.639Z,20.95
2017-03-07T06:09:10.663Z,20.97
2017-03-07T06:10:09.893Z,20.98
2017-03-07T06:11:10.340Z,21.06
2017-03-07T06:12:10.349Z,21.03
2017-03-07T06:13:10.770Z,21.13
2017-03-07T06:14:10.786Z,21.07
2017-03-07T06:15:10.831Z,20.98
2017-03-07T06:16:10.472Z,21.06
2017-03-07T06:17:10.484Z,20.94
2017-03-07T06:18:10.501Z,21.04
2017-03-07T06:19:10.929Z,21.04
2017-03-07T06:20:10.155Z,20.95
2017-03-07T06:21:10.580Z,21.06
2017-03-07T06:22:11.013Z,20.99
2017-03-07T06:23:10.237Z,20.99
2017-03-07T06:24:11.059Z,21.04
2017-03-07T06:25:10.543Z,20.95
2017-03-07T06:26:11.119Z,21.04
2017-03-07T06:27:11.144Z,20.94
2017-03-07T06:28:11.165Z,21.01
2017-03-07T06:29:10.805Z,21.01
2017-03-07T06:30:11.070Z,20.97
2017-03-07T06:31:11.243Z,20.98
2017-03-07T06:32:10.880Z,21.01
2017-03-07T06:33:10.909Z,20.94
2017-03-07T06:34:10.925Z,21.03
2017-03-07T06:35:11.195Z,20.98
2017-03-07T06:36:10.972Z,21.03
2017-03-07T06:37:11.411Z,21.07
2017-03-07T06:38:11.427Z,21.04
2017-03-07T06:39:11.480Z,21.01
2017-03-07T06:40:11.338Z,21.09
2017-03-07T06:41:11.110Z,21.03
2017-03-07T06:42:11.527Z,21.01
2017-03-07T06:43:11.164Z,21.09
2017-03-07T06:44:10.805Z,21.06
2017-03-07T06:45:11.470Z,21.09
2017-03-07T06:46:11.646Z,21.07
2017-03-07T06:47:11.663Z,21.14
2017-03-07T06:48:11.312Z,21.16
2017-03-07T06:49:10.928Z,21.17
2017-03-07T06:50:12.009Z,21.17
2017-03-07T06:51:11.771Z,21.04
2017-03-07T06:52:11.811Z,21.24
2017-03-07T06:53:11.047Z,21.16
2017-03-07T06:54:11.448Z,21.17
2017-03-07T06:55:12.154Z,21.16
2017-03-07T06:56:11.522Z,21.22
2017-03-07T06:57:11.926Z,21.28
2017-03-07T06:58:11.559Z,21.25
2017-03-07T06:59:11.988Z,21.31
2017-03-07T07:00:11.872Z,21.21
2017-03-07T07:01:12.045Z,21.29
2017-03-07T07:02:12.077Z,21.4
2017-03-07T07:03:11.707Z,21.28
2017-03-07T07:04:12.115Z,21.37
2017-03-07T07:05:11.992Z,21.38
2017-03-07T07:06:11.826Z,21.37
2017-03-07T07:07:12.210Z,21.32
2017-03-07T07:08:12.218Z,21.38
2017-03-07T07:09:12.259Z,21.37
2017-03-07T07:10:12.524Z,21.44
2017-03-07T07:11:11.907Z,21.42
2017-03-07T07:12:12.329Z,21.43
2017-03-07T07:13:12.361Z,21.42
2017-03-07T07:14:12.399Z,21.46
2017-03-07T07:15:12.663Z,21.53
2017-03-07T07:16:12.438Z,21.49
2017-03-07T07:17:12.483Z,21.5
2017-03-07T07:18:11.702Z,21.44
2017-03-07T07:19:11.724Z,21.5
2017-03-07T07:20:12.142Z,21.46
2017-03-07T07:21:12.176Z,21.44
2017-03-07T07:22:12.602Z,21.46
2017-03-07T07:23:12.237Z,21.5
2017-03-07T07:24:12.646Z,21.47
2017-03-07T07:25:12.675Z,21.5
2017-03-07T07:26:12.707Z,21.47
2017-03-07T07:27:12.364Z,21.47
2017-03-07T07:28:12.752Z,21.52
2017-03-07T07:29:12.777Z,21.49
2017-03-07T07:30:12.819Z,21.46
2017-03-07T07:31:12.462Z,21.47
2017-03-07T07:32:12.872Z,21.46
2017-03-07T07:33:12.889Z,21.52
2017-03-07T07:34:12.913Z,21.58
2017-03-07T07:35:12.559Z,21.53
2017-03-07T07:36:12.982Z,21.47
2017-03-07T07:37:13.012Z,21.54
2017-03-07T07:38:12.628Z,21.58
2017-03-07T07:39:13.069Z,21.52
2017-03-07T07:40:12.690Z,21.58
2017-03-07T07:41:13.106Z,21.49
2017-03-07T07:42:12.336Z,21.59
2017-03-07T07:43:13.180Z,21.53
2017-03-07T07:44:12.793Z,21.59
2017-03-07T07:45:12.422Z,21.52
2017-03-07T07:46:13.103Z,21.49
2017-03-07T07:47:13.279Z,21.46
2017-03-07T07:48:13.293Z,21.5
2017-03-07T07:49:13.320Z,21.5
2017-03-07T07:50:13.360Z,21.52
2017-03-07T07:51:13.230Z,21.53
2017-03-07T07:52:12.994Z,21.5
2017-03-07T07:53:13.432Z,21.44
2017-03-07T07:54:13.057Z,21.56
2017-03-07T07:55:13.509Z,21.49
2017-03-07T07:56:13.365Z,21.47
2017-03-07T07:57:12.751Z,21.44
2017-03-07T07:58:13.555Z,21.49
2017-03-07T07:59:13.600Z,21.44
2017-03-07T08:00:13.609Z,21.53
2017-03-07T08:01:13.498Z,21.43
2017-03-07T08:02:13.282Z,21.43
2017-03-07T08:03:13.715Z,21.47
2017-03-07T08:04:13.720Z,21.44
2017-03-07T08:05:13.760Z,21.4
2017-03-07T08:06:14.034Z,21.37
2017-03-07T08:07:13.024Z,21.44
2017-03-07T08:08:13.038Z,21.44
2017-03-07T08:09:13.460Z,21.46
2017-03-07T08:10:13.879Z,21.43
2017-03-07T08:11:14.156Z,21.4
2017-03-07T08:12:13.933Z,21.35
2017-03-07T08:13:13.967Z,21.38
2017-03-07T08:14:13.587Z,21.38
2017-03-07T08:15:14.012Z,21.32
2017-03-07T08:16:13.905Z,21.34
2017-03-07T08:17:14.093Z,21.32
2017-03-07T08:18:13.710Z,21.37
2017-03-07T08:19:13.729Z,21.37
2017-03-07T08:20:13.368Z,21.4
2017-03-07T08:21:14.437Z,21.32
2017-03-07T08:22:13.809Z,21.29
2017-03-07T08:23:13.837Z,21.31
2017-03-07T08:24:14.262Z,21.34
2017-03-07T08:25:14.286Z,21.34
2017-03-07T08:26:14.575Z,21.37
2017-03-07T08:27:13.968Z,21.32
2017-03-07T08:28:14.366Z,21.31
2017-03-07T08:29:13.986Z,21.35
2017-03-07T08:30:14.428Z,21.35
2017-03-07T08:31:14.712Z,21.34
2017-03-07T08:32:14.476Z,21.32
2017-03-07T08:33:14.530Z,21.31
2017-03-07T08:34:14.536Z,21.28
2017-03-07T08:35:14.555Z,21.28
2017-03-07T08:36:14.451Z,21.31
2017-03-07T08:37:14.608Z,21.32
2017-03-07T08:38:14.640Z,21.31
2017-03-07T08:39:14.654Z,21.27
2017-03-07T08:40:14.295Z,21.29
2017-03-07T08:41:14.575Z,21.17
2017-03-07T08:42:14.740Z,21.24
2017-03-07T08:43:14.376Z,21.25
2017-03-07T08:44:14.409Z,21.27
2017-03-07T08:45:14.838Z,21.17
2017-03-07T08:46:15.106Z,21.21
2017-03-07T08:47:14.877Z,21.21
2017-03-07T08:48:14.917Z,21.17
2017-03-07T08:49:14.537Z,21.16
2017-03-07T08:50:14.563Z,21.17
2017-03-07T08:51:15.254Z,21.21
2017-03-07T08:52:14.616Z,21.1
2017-03-07T08:53:14.252Z,21.19
2017-03-07T08:54:15.060Z,21.14
2017-03-07T08:55:14.713Z,21.12
2017-03-07T08:56:14.714Z,21.09
2017-03-07T08:57:15.164Z,21.06
2017-03-07T08:58:15.160Z,21.1
2017-03-07T08:59:15.196Z,21.04
2017-03-07T09:00:14.846Z,21.09
2017-03-07T09:01:15.262Z,21.09
2017-03-07T09:02:14.891Z,21.09
2017-03-07T09:03:15.300Z,20.99
2017-03-07T09:04:14.937Z,21.06
2017-03-07T09:05:14.969Z,21.04
2017-03-07T09:06:15.399Z,21.03
2017-03-07T09:07:15.410Z,21.03
2017-03-07T09:08:15.459Z,20.92
2017-03-07T09:09:15.481Z,21.07
2017-03-07T09:10:15.489Z,21.01
2017-03-07T09:11:15.145Z,20.95
2017-03-07T09:12:15.146Z,20.94
2017-03-07T09:13:15.179Z,20.94
2017-03-07T09:14:15.196Z,21.03
2017-03-07T09:15:14.844Z,20.94
2017-03-07T09:16:15.269Z,20.95
2017-03-07T09:17:15.290Z,21.01
2017-03-07T09:18:15.695Z,20.94
2017-03-07T09:19:15.335Z,20.97
2017-03-07T09:20:15.760Z,20.99
2017-03-07T09:21:15.793Z,20.95
2017-03-07T09:22:15.408Z,20.98
2017-03-07T09:23:15.448Z,20.98
2017-03-07T09:24:15.875Z,20.92
2017-03-07T09:25:15.500Z,20.99
2017-03-07T09:26:15.921Z,20.85
2017-03-07T09:27:15.569Z,20.99
2017-03-07T09:28:15.177Z,20.91
2017-03-07T09:29:15.995Z,20.91
2017-03-07T09:30:15.639Z,20.91
2017-03-07T09:31:15.665Z,20.94
2017-03-07T09:32:15.678Z,20.92
2017-03-07T09:33:16.106Z,20.91
2017-03-07T09:34:15.754Z,20.98
2017-03-07T09:35:16.163Z,20.91
2017-03-07T09:36:16.192Z,20.98
2017-03-07T09:37:15.417Z,20.98
2017-03-07T09:38:16.274Z,20.97
2017-03-07T09:39:16.262Z,20.98
2017-03-07T09:40:15.894Z,20.94
2017-03-07T09:41:15.936Z,21.01
2017-03-07T09:42:16.221Z,20.98
2017-03-07T09:43:15.977Z,20.87
2017-03-07T09:44:16.394Z,20.92
2017-03-07T09:45:16.047Z,20.85
2017-03-07T09:46:16.460Z,20.85
2017-03-07T09:47:15.952Z,20.87
2017-03-07T09:48:16.120Z,20.89
2017-03-07T09:49:16.131Z,20.91
2017-03-07T09:50:16.622Z,20.91
2017-03-07T09:51:16.579Z,20.85
2017-03-07T09:52:16.497Z,20.89
2017-03-07T09:53:16.233Z,20.87
2017-03-07T09:54:16.278Z,20.91
2017-03-07T09:55:16.707Z,20.87
2017-03-07T09:56:16.343Z,20.91
2017-03-07T09:57:16.600Z,20.88
2017-03-07T09:58:16.769Z,20.94
2017-03-07T09:59:16.393Z,20.88
2017-03-07T10:00:16.423Z,20.89
2017-03-07T10:01:16.454Z,20.84
2017-03-07T10:02:16.731Z,20.87
2017-03-07T10:03:16.111Z,20.89
2017-03-07T10:04:16.526Z,20.87
2017-03-07T10:05:16.562Z,20.98
2017-03-07T10:06:16.979Z,20.85
2017-03-07T10:07:16.863Z,20.87
2017-03-07T10:08:17.036Z,20.98
2017-03-07T10:09:17.061Z,20.99
2017-03-07T10:10:16.705Z,20.98
2017-03-07T10:11:16.326Z,20.98
2017-03-07T10:12:17.399Z,20.85
2017-03-07T10:13:16.375Z,20.91
2017-03-07T10:14:17.191Z,20.84
2017-03-07T10:15:16.825Z,20.94
2017-03-07T10:16:17.245Z,20.97
2017-03-07T10:17:16.743Z,21.01
2017-03-07T10:18:16.911Z,20.98
2017-03-07T10:19:16.932Z,21.01
2017-03-07T10:20:17.353Z,21.04
2017-03-07T10:21:17.384Z,21.06
2017-03-07T10:22:17.273Z,20.94
2017-03-07T10:23:17.059Z,21.04
2017-03-07T10:24:17.072Z,20.98
2017-03-07T10:25:17.093Z,21.14
2017-03-07T10:26:17.514Z,20.99
2017-03-07T10:27:17.803Z,21.09
2017-03-07T10:28:17.191Z,21.01
2017-03-07T10:29:17.208Z,21.04
2017-03-07T10:30:17.624Z,21.03
2017-03-07T10:31:17.643Z,21.04
2017-03-07T10:32:17.530Z,21.06
2017-03-07T10:33:17.715Z,21.04
2017-03-07T10:34:17.747Z,21.1
2017-03-07T10:35:17.367Z,21.09
2017-03-07T10:36:17.413Z,21.09
2017-03-07T10:37:17.678Z,21.16
2017-03-07T10:38:17.454Z,21.06
2017-03-07T10:39:17.861Z,21.04
2017-03-07T10:40:17.891Z,21.16
2017-03-07T10:41:17.919Z,21.09
2017-03-07T10:42:17.814Z,21.06
2017-03-07T10:43:17.604Z,21.13
2017-03-07T10:44:17.990Z,21.1
2017-03-07T10:45:18.024Z,21.13
2017-03-07T10:46:18.067Z,21.24
2017-03-07T10:47:18.342Z,21.13
2017-03-07T10:48:17.737Z,21.21
2017-03-07T10:49:18.132Z,21.19
2017-03-07T10:50:18.166Z,21.22
2017-03-07T10:51:18.182Z,21.29
2017-03-07T10:52:18.472Z,21.4
2017-03-07T10:53:18.249Z,21.32
2017-03-07T10:54:18.266Z,21.32
2017-03-07T10:55:18.302Z,21.38
2017-03-07T10:56:17.942Z,21.38
2017-03-07T10:57:18.596Z,21.4
2017-03-07T10:58:17.981Z,21.42
2017-03-07T10:59:18.401Z,21.46
2017-03-07T11:00:18.043Z,21.43
2017-03-07T11:01:18.050Z,21.43
2017-03-07T11:02:18.743Z,21.44
2017-03-07T11:03:18.512Z,21.5
2017-03-07T11:04:18.536Z,21.46
2017-03-07T11:05:18.161Z,21.5
2017-03-07T11:06:18.215Z,21.49
2017-03-07T11:07:18.871Z,21.47
2017-03-07T11:08:18.268Z,21.43
2017-03-07T11:09:18.685Z,21.4
2017-03-07T11:10:18.717Z,21.4
2017-03-07T11:11:18.351Z,21.47
2017-03-07T11:12:18.630Z,21.42
2017-03-07T11:13:18.795Z,21.47
2017-03-07T11:14:18.800Z,21.46
2017-03-07T11:15:18.833Z,21.52
2017-03-07T11:16:18.069Z,21.47
2017-03-07T11:17:19.161Z,21.58
2017-03-07T11:18:18.510Z,21.56
2017-03-07T11:19:18.556Z,21.54
2017-03-07T11:20:18.956Z,21.58
2017-03-07T11:21:18.997Z,21.61
2017-03-07T11:22:18.882Z,21.59
2017-03-07T11:23:18.647Z,21.58
2017-03-07T11:24:18.699Z,21.59
2017-03-07T11:25:18.324Z,21.67
2017-03-07T11:26:18.744Z,21.64
2017-03-07T11:27:19.013Z,21.69
2017-03-07T11:28:19.198Z,21.71
2017-03-07T11:29:19.214Z,21.72
2017-03-07T11:30:19.263Z,21.83
2017-03-07T11:31:18.878Z,21.75
2017-03-07T11:32:19.149Z,21.83
2017-03-07T11:33:19.340Z,21.77
2017-03-07T11:34:19.361Z,21.77
2017-03-07T11:35:19.379Z,21.86
2017-03-07T11:36:19.009Z,21.79
2017-03-07T11:37:19.308Z,21.86
2017-03-07T11:38:19.469Z,21.8
2017-03-07T11:39:19.087Z,21.83
2017-03-07T11:40:19.516Z,21.84
2017-03-07T11:41:19.145Z,21.8
2017-03-07T11:42:19.812Z,21.84
2017-03-07T11:43:19.189Z,21.82
2017-03-07T11:44:19.630Z,21.82
2017-03-07T11:45:19.251Z,21.8
2017-03-07T11:46:19.683Z,21.82
2017-03-07T11:47:19.572Z,21.86
2017-03-07T11:48:18.949Z,21.77
2017-03-07T11:49:19.767Z,21.75
2017-03-07T11:50:19.786Z,21.77
2017-03-07T11:51:19.819Z,21.8
2017-03-07T11:52:20.084Z,21.79
2017-03-07T11:53:19.473Z,21.83
2017-03-07T11:54:19.105Z,21.75
2017-03-07T11:55:19.927Z,21.77
2017-03-07T11:56:19.162Z,21.82
2017-03-07T11:57:20.228Z,21.8
2017-03-07T11:58:20.008Z,21.82
2017-03-07T11:59:19.635Z,21.75
2017-03-07T12:00:20.103Z,21.77
2017-03-07T12:01:20.102Z,21.72
2017-03-07T12:02:19.582Z,21.72
2017-03-07T12:03:20.132Z,21.72
2017-03-07T12:04:20.164Z,21.77
2017-03-07T12:05:19.810Z,21.75
2017-03-07T12:06:19.826Z,21.8
2017-03-07T12:07:20.502Z,21.75
2017-03-07T12:08:20.272Z,21.74
2017-03-07T12:09:20.305Z,21.68
2017-03-07T12:10:19.941Z,21.74
2017-03-07T12:11:20.354Z,21.75
2017-03-07T12:12:20.641Z,21.82
2017-03-07T12:13:20.419Z,21.71
2017-03-07T12:14:20.440Z,21.77
2017-03-07T12:15:20.069Z,21.74
2017-03-07T12:16:20.110Z,21.86
2017-03-07T12:17:20.119Z,21.91
2017-03-07T12:18:20.171Z,21.91
2017-03-07T12:19:20.185Z,21.98
2017-03-07T12:20:20.629Z,22.05
2017-03-07T12:21:20.626Z,22.06
2017-03-07T12:22:20.659Z,22.15
2017-03-07T12:23:20.691Z,22.22
2017-03-07T12:24:20.316Z,22.28
2017-03-07T12:25:20.745Z,22.35
2017-03-07T12:26:20.365Z,22.37
2017-03-07T12:27:20.405Z,22.31
2017-03-07T12:28:20.426Z,22.46
2017-03-07T12:29:20.851Z,22.51
2017-03-07T12:30:20.482Z,22.54
2017-03-07T12:31:20.897Z,22.62
2017-03-07T12:32:20.945Z,22.72
2017-03-07T12:33:20.970Z,22.88
2017-03-07T12:34:20.587Z,23.04
2017-03-07T12:35:20.629Z,23.2
2017-03-07T12:36:21.041Z,23.33
2017-03-07T12:37:20.681Z,23.48
2017-03-07T12:38:20.706Z,23.7
2017-03-07T12:39:20.737Z,23.75
2017-03-07T12:40:21.155Z,23.83
2017-03-07T12:41:21.185Z,23.9
2017-03-07T12:42:21.213Z,23.91
2017-03-07T12:43:20.837Z,24.05
2017-03-07T12:44:21.270Z,24.21
2017-03-07T12:45:21.301Z,24.25
2017-03-07T12:46:20.934Z,24.42
2017-03-07T12:47:21.361Z,24.39
2017-03-07T12:48:21.376Z,24.37
2017-03-07T12:49:21.023Z,24.4
2017-03-07T12:50:21.442Z,24.45
2017-03-07T12:51:21.076Z,24.5
2017-03-07T12:52:21.496Z,24.43
2017-03-07T12:53:21.412Z,24.37
2017-03-07T12:54:21.562Z,24.4